Greenwood, Indiana
Current Conditions -  °F | °C
As of 10:54 PM on Wednesday 22 Oct 2014 (Local Time) from KIND Reporting Station
Clear Clear  
Wind Chill: 44°   Ceiling: Unl
Heat Index: 47°   Visibility: 10mi
Dew Point: 40°   Wind: 7mph
Humidity: 77%   Direction: 80°E
Pressure: 30.25"   Gusts: NA
Location:  39.61°N, 86.11°W
Report Text: KIND 230254Z 08006KT 10SM CLR 08/04 A3025 RMK AO2 SLP246 T00830044 53001
Loading
Personal Weather Stations






























Interactive Weather Map
Tropical Storm Tracking
New forecast layout! Learn more

10-Day Weather Forecast

Advertisements
Track Severe Weather on mobile